Time;durP1;ratioP1;P1;durP2;ratioP2;P2;SDS_P1;SDS_P2;PMS_P1;PMS_P2;Temp;Humidity;BMP_temperature;BMP_pressure;BME280_temperature;BME280_humidity;BME280_pressure;Samples;Min_cycle;Max_cycle;Signal;HPM_P1;HPM_P2
2022/12/02 00:01:59;;;;;;;72.97;32.55;;;;;;;;;;5163911;27;20055;-72
2022/12/02 00:04:26;;;;;;;68.75;32.70;;;;;;;;;;5164228;27;20497;-73
2022/12/02 00:06:54;;;;;;;78.25;36.05;;;;;;;;;;5164227;27;20361;-73
2022/12/02 00:09:34;;;;;;;75.68;33.33;;;;;;;;;;5165100;27;20042;-73
2022/12/02 00:12:17;;;;;;;78.50;34.85;;;;;;;;;;5164825;27;20055;-74
2022/12/02 00:14:44;;;;;;;76.00;34.15;;;;;;;;;;5163005;27;20339;-73
2022/12/02 00:17:10;;;;;;;78.90;36.47;;;;;;;;;;5165323;27;20057;-73
2022/12/02 00:19:36;;;;;;;76.22;36.30;;;;;;;;;;5163660;27;20108;-73
2022/12/02 00:22:03;;;;;;;73.22;33.50;;;;;;;;;;5164387;27;21126;-72
2022/12/02 00:24:29;;;;;;;83.70;36.70;;;;;;;;;;5161279;27;20412;-73
2022/12/02 00:26:56;;;;;;;75.35;34.53;;;;;;;;;;5164346;27;20555;-73
2022/12/02 00:29:22;;;;;;;77.43;34.67;;;;;;;;;;5157964;27;20053;-74
2022/12/02 00:31:48;;;;;;;77.47;33.60;;;;;;;;;;5164910;27;20043;-73
2022/12/02 00:34:15;;;;;;;78.82;33.63;;;;;;;;;;5159472;27;20059;-73
2022/12/02 00:36:41;;;;;;;77.80;33.53;;;;;;;;;;5164707;27;20038;-73
2022/12/02 00:39:07;;;;;;;70.68;34.33;;;;;;;;;;5165549;27;20469;-73
2022/12/02 00:41:33;;;;;;;76.38;34.30;;;;;;;;;;5164836;27;20548;-72
2022/12/02 00:46:45;;;;;;;72.80;32.03;;;;;;;;;;5163498;27;20054;-73
2022/12/02 00:49:13;;;;;;;72.75;33.38;;;;;;;;;;5162114;27;20054;-72
2022/12/02 00:51:40;;;;;;;77.50;33.50;;;;;;;;;;5166119;27;20060;-74
2022/12/02 00:54:07;;;;;;;70.95;33.33;;;;;;;;;;5157702;27;20043;-73
2022/12/02 00:56:33;;;;;;;78.50;33.55;;;;;;;;;;5164965;27;20046;-72
2022/12/02 00:59:00;;;;;;;80.50;34.65;;;;;;;;;;5158580;27;20059;-73
2022/12/02 01:01:27;;;;;;;74.10;34.42;;;;;;;;;;5164641;27;20047;-73
2022/12/02 01:03:53;;;;;;;77.32;35.90;;;;;;;;;;5161914;27;20083;-73
2022/12/02 01:06:19;;;;;;;73.50;33.58;;;;;;;;;;5156978;27;20051;-72
2022/12/02 01:08:46;;;;;;;79.55;35.67;;;;;;;;;;5162315;27;20057;-74
2022/12/02 01:11:13;;;;;;;75.38;33.38;;;;;;;;;;5165510;27;20070;-73
2022/12/02 01:13:39;;;;;;;72.57;32.83;;;;;;;;;;5162913;27;20096;-73
2022/12/02 01:16:06;;;;;;;75.55;32.97;;;;;;;;;;5163553;27;20047;-72
2022/12/02 01:18:32;;;;;;;76.15;33.90;;;;;;;;;;5162876;27;20085;-73
2022/12/02 01:20:58;;;;;;;77.70;35.00;;;;;;;;;;5165827;27;20047;-74
2022/12/02 01:23:25;;;;;;;81.80;33.63;;;;;;;;;;5158408;27;20051;-74
2022/12/02 01:25:51;;;;;;;80.25;31.30;;;;;;;;;;5159422;27;20051;-73
2022/12/02 01:28:17;;;;;;;75.82;31.52;;;;;;;;;;5162442;27;20050;-73
2022/12/02 01:30:44;;;;;;;79.03;34.67;;;;;;;;;;5165366;27;20047;-73
2022/12/02 01:33:10;;;;;;;72.05;32.40;;;;;;;;;;5161105;27;20051;-73
2022/12/02 01:35:36;;;;;;;73.97;33.00;;;;;;;;;;5162415;27;20054;-72
2022/12/02 01:38:03;;;;;;;71.10;33.83;;;;;;;;;;5161875;27;20050;-73
2022/12/02 01:40:30;;;;;;;71.00;31.95;;;;;;;;;;5162965;27;20043;-73
2022/12/02 01:42:56;;;;;;;78.28;32.38;;;;;;;;;;5162515;27;20204;-73
2022/12/02 01:45:22;;;;;;;73.05;31.55;;;;;;;;;;5157943;27;20138;-72
2022/12/02 01:47:49;;;;;;;74.90;31.85;;;;;;;;;;5162157;27;20156;-73
2022/12/02 01:50:16;;;;;;;65.30;31.15;;;;;;;;;;5162367;27;20057;-73
2022/12/02 01:52:43;;;;;;;71.43;33.90;;;;;;;;;;5164209;27;20055;-74
2022/12/02 01:55:11;;;;;;;76.00;31.35;;;;;;;;;;5154197;27;20050;-73
2022/12/02 01:57:38;;;;;;;71.85;30.67;;;;;;;;;;5163659;27;20100;-72
2022/12/02 02:00:05;;;;;;;70.32;30.77;;;;;;;;;;5162010;27;20054;-73
2022/12/02 02:02:34;;;;;;;69.80;30.88;;;;;;;;;;5161830;27;20537;-72
2022/12/02 02:05:02;;;;;;;69.03;30.23;;;;;;;;;;5151766;27;20519;-74
2022/12/02 02:07:29;;;;;;;66.70;30.15;;;;;;;;;;5164518;27;20053;-74
2022/12/02 02:09:56;;;;;;;63.22;28.20;;;;;;;;;;5162151;27;20503;-73
2022/12/02 02:12:23;;;;;;;67.78;29.48;;;;;;;;;;5163268;27;20490;-72
2022/12/02 02:14:50;;;;;;;70.65;29.92;;;;;;;;;;5155776;27;20488;-73
2022/12/02 02:17:16;;;;;;;64.07;29.50;;;;;;;;;;5162029;27;20505;-73
2022/12/02 02:19:43;;;;;;;63.83;28.15;;;;;;;;;;5162440;27;20050;-71
2022/12/02 02:22:18;;;;;;;62.53;28.25;;;;;;;;;;5157771;27;20053;-73
2022/12/02 02:24:45;;;;;;;65.68;27.55;;;;;;;;;;5161093;27;20088;-72
2022/12/02 02:27:11;;;;;;;55.95;24.52;;;;;;;;;;5163302;27;20512;-72
2022/12/02 02:29:37;;;;;;;62.40;26.85;;;;;;;;;;5164150;27;20059;-73
2022/12/02 02:32:04;;;;;;;61.17;25.58;;;;;;;;;;5162363;27;20051;-74
2022/12/02 02:34:30;;;;;;;62.88;25.98;;;;;;;;;;5156896;27;20057;-74
2022/12/02 02:36:57;;;;;;;58.40;24.27;;;;;;;;;;5161361;27;20204;-73
2022/12/02 02:39:24;;;;;;;60.60;26.17;;;;;;;;;;5163701;27;20047;-73
2022/12/02 02:41:51;;;;;;;59.03;26.83;;;;;;;;;;5162582;27;20101;-73
2022/12/02 02:44:17;;;;;;;59.35;24.88;;;;;;;;;;5158466;27;20517;-73
2022/12/02 02:46:50;;;;;;;59.30;24.75;;;;;;;;;;5162870;27;20141;-73
2022/12/02 02:49:17;;;;;;;62.20;27.00;;;;;;;;;;5155308;27;20055;-73
2022/12/02 02:51:43;;;;;;;58.33;23.80;;;;;;;;;;5144066;27;20063;-72
2022/12/02 02:54:10;;;;;;;64.00;26.35;;;;;;;;;;5153659;27;20055;-71
2022/12/02 02:56:36;;;;;;;67.90;27.25;;;;;;;;;;5157272;27;20050;-73
2022/12/02 02:59:02;;;;;;;56.88;24.63;;;;;;;;;;5162682;27;20051;-73
2022/12/02 03:01:32;;;;;;;63.65;26.15;;;;;;;;;;5159948;27;20050;-72
2022/12/02 03:04:00;;;;;;;64.60;26.52;;;;;;;;;;5155953;27;21101;-73
2022/12/02 03:06:28;;;;;;;62.92;26.25;;;;;;;;;;5163745;27;20043;-72
2022/12/02 03:08:55;;;;;;;63.40;25.05;;;;;;;;;;5162814;27;20536;-73
2022/12/02 03:11:21;;;;;;;64.00;25.25;;;;;;;;;;5163493;27;20081;-72
2022/12/02 03:13:49;;;;;;;63.35;25.70;;;;;;;;;;5160908;27;20050;-73
2022/12/02 03:16:17;;;;;;;63.20;25.73;;;;;;;;;;5161650;27;20054;-74
2022/12/02 03:18:44;;;;;;;57.22;25.67;;;;;;;;;;5166349;27;20472;-72
2022/12/02 03:21:12;;;;;;;60.30;25.88;;;;;;;;;;5164053;27;20505;-72
2022/12/02 03:23:38;;;;;;;64.32;24.55;;;;;;;;;;5161339;27;20059;-73
2022/12/02 03:26:05;;;;;;;57.97;25.10;;;;;;;;;;5162074;27;20046;-73
2022/12/02 03:28:31;;;;;;;56.00;23.67;;;;;;;;;;5164503;27;20048;-73
2022/12/02 03:30:58;;;;;;;68.63;25.15;;;;;;;;;;5165677;27;20497;-72
2022/12/02 03:33:24;;;;;;;57.83;24.65;;;;;;;;;;5163828;27;20043;-74
2022/12/02 03:35:51;;;;;;;68.43;26.83;;;;;;;;;;5144725;27;20058;-73
2022/12/02 03:38:17;;;;;;;62.10;24.65;;;;;;;;;;5165479;27;20047;-73
2022/12/02 03:40:44;;;;;;;58.25;24.48;;;;;;;;;;5165248;27;20125;-72
2022/12/02 03:43:11;;;;;;;67.38;26.38;;;;;;;;;;5164202;27;20076;-73
2022/12/02 03:45:37;;;;;;;56.03;23.40;;;;;;;;;;5154275;27;20508;-73
2022/12/02 03:48:04;;;;;;;62.90;24.88;;;;;;;;;;5165359;27;20085;-72
2022/12/02 03:50:30;;;;;;;64.63;25.65;;;;;;;;;;5164847;27;20211;-74
2022/12/02 03:52:57;;;;;;;63.15;25.48;;;;;;;;;;5166567;27;20504;-74
2022/12/02 03:55:23;;;;;;;70.90;27.60;;;;;;;;;;5164266;27;20050;-72
2022/12/02 03:57:49;;;;;;;66.90;25.45;;;;;;;;;;5165681;27;20088;-72
2022/12/02 04:00:16;;;;;;;57.83;23.85;;;;;;;;;;5166122;27;20176;-73
2022/12/02 04:02:42;;;;;;;65.80;25.90;;;;;;;;;;5164971;27;20046;-73
2022/12/02 04:05:09;;;;;;;63.15;25.38;;;;;;;;;;5159987;27;20047;-72
2022/12/02 04:07:35;;;;;;;66.30;25.95;;;;;;;;;;5166600;27;20058;-73
2022/12/02 04:10:02;;;;;;;61.08;24.88;;;;;;;;;;5163907;27;20175;-72
2022/12/02 04:12:29;;;;;;;61.78;24.15;;;;;;;;;;5163474;27;20062;-73
2022/12/02 04:14:55;;;;;;;70.32;26.30;;;;;;;;;;5164651;27;20088;-73
2022/12/02 04:17:22;;;;;;;61.85;25.42;;;;;;;;;;5164724;27;20463;-72
2022/12/02 04:19:49;;;;;;;64.68;26.40;;;;;;;;;;5164472;27;20076;-73
2022/12/02 04:22:15;;;;;;;66.10;25.42;;;;;;;;;;5165201;27;20047;-74
2022/12/02 04:24:42;;;;;;;62.83;24.15;;;;;;;;;;5163886;27;20054;-72
2022/12/02 04:27:08;;;;;;;59.17;24.70;;;;;;;;;;5163916;27;20046;-72
2022/12/02 04:29:34;;;;;;;58.97;24.50;;;;;;;;;;5163774;27;20093;-72
2022/12/02 04:32:00;;;;;;;66.88;26.50;;;;;;;;;;5164688;27;20103;-73
2022/12/02 04:34:27;;;;;;;65.03;26.15;;;;;;;;;;5145216;27;20047;-73
2022/12/02 04:36:53;;;;;;;61.75;25.02;;;;;;;;;;5165506;27;20047;-72
2022/12/02 04:39:19;;;;;;;61.53;24.98;;;;;;;;;;5166322;27;20061;-73
2022/12/02 04:41:46;;;;;;;63.63;24.98;;;;;;;;;;5166077;27;20103;-72
2022/12/02 04:44:12;;;;;;;61.75;25.70;;;;;;;;;;5163707;27;20046;-71
2022/12/02 04:46:43;;;;;;;63.20;25.75;;;;;;;;;;5166068;27;20050;-75
2022/12/02 04:49:10;;;;;;;68.78;25.02;;;;;;;;;;5164449;27;20065;-73
2022/12/02 04:51:36;;;;;;;58.30;25.35;;;;;;;;;;5165165;27;20051;-73
2022/12/02 04:54:03;;;;;;;61.15;24.80;;;;;;;;;;5164475;27;20776;-73
2022/12/02 04:56:29;;;;;;;61.95;24.77;;;;;;;;;;5167548;27;20051;-72
2022/12/02 04:58:55;;;;;;;59.95;25.70;;;;;;;;;;5167313;27;20054;-72
2022/12/02 05:01:22;;;;;;;61.00;24.77;;;;;;;;;;5167103;27;20251;-73
2022/12/02 05:03:48;;;;;;;66.25;25.40;;;;;;;;;;5166423;27;20107;-71
2022/12/02 05:06:15;;;;;;;58.05;23.77;;;;;;;;;;5148699;27;20382;-73
2022/12/02 05:08:41;;;;;;;60.75;25.17;;;;;;;;;;5170389;27;20877;-72
2022/12/02 05:11:08;;;;;;;54.88;22.73;;;;;;;;;;5169041;27;20047;-72
2022/12/02 05:13:34;;;;;;;51.53;20.30;;;;;;;;;;5166918;27;20027;-73
2022/12/02 05:16:00;;;;;;;52.63;21.40;;;;;;;;;;5164474;27;20046;-73
2022/12/02 05:18:27;;;;;;;49.28;20.48;;;;;;;;;;5164916;27;20100;-71
2022/12/02 05:20:53;;;;;;;47.72;19.83;;;;;;;;;;5167196;27;20524;-73
2022/12/02 05:23:19;;;;;;;45.42;19.83;;;;;;;;;;5166198;27;20429;-72
2022/12/02 05:25:45;;;;;;;52.17;20.30;;;;;;;;;;5166222;27;20059;-73
2022/12/02 05:28:12;;;;;;;49.22;20.35;;;;;;;;;;5161606;27;20065;-73
2022/12/02 05:30:38;;;;;;;53.67;21.42;;;;;;;;;;5162247;27;20517;-73
2022/12/02 05:33:04;;;;;;;54.53;22.25;;;;;;;;;;5165797;27;20057;-72
2022/12/02 05:35:31;;;;;;;43.60;19.50;;;;;;;;;;5167522;27;20173;-73
2022/12/02 05:37:57;;;;;;;51.85;18.75;;;;;;;;;;5165883;27;20397;-72
2022/12/02 05:40:29;;;;;;;44.33;19.33;;;;;;;;;;5165400;27;20197;-72
2022/12/02 05:42:56;;;;;;;47.22;20.13;;;;;;;;;;5165307;27;20054;-73
2022/12/02 05:45:23;;;;;;;50.65;20.17;;;;;;;;;;5164082;27;20492;-72
2022/12/02 05:47:51;;;;;;;48.05;20.98;;;;;;;;;;5162714;27;20046;-71
2022/12/02 05:50:18;;;;;;;49.58;20.88;;;;;;;;;;5161272;27;20047;-73
2022/12/02 05:52:45;;;;;;;48.08;20.80;;;;;;;;;;5159612;27;20054;-71
2022/12/02 05:55:13;;;;;;;44.40;20.00;;;;;;;;;;5165295;27;20051;-72
2022/12/02 05:57:39;;;;;;;44.28;17.27;;;;;;;;;;5163962;27;20050;-71
2022/12/02 06:00:13;;;;;;;40.15;18.02;;;;;;;;;;5159971;27;20058;-71
2022/12/02 06:02:48;;;;;;;38.42;16.67;;;;;;;;;;5166518;27;20054;-71
2022/12/02 06:05:19;;;;;;;43.45;17.17;;;;;;;;;;5163770;27;20050;-72
2022/12/02 06:07:46;;;;;;;35.78;17.77;;;;;;;;;;5162807;27;20556;-72
2022/12/02 06:10:20;;;;;;;34.92;17.08;;;;;;;;;;5163488;27;20039;-72
2022/12/02 06:12:46;;;;;;;41.67;17.35;;;;;;;;;;5145172;27;20058;-72
2022/12/02 06:15:13;;;;;;;34.15;16.80;;;;;;;;;;5162584;27;20111;-70
2022/12/02 06:17:40;;;;;;;36.72;17.23;;;;;;;;;;5165361;27;20130;-72
2022/12/02 06:20:10;;;;;;;42.80;18.25;;;;;;;;;;5140967;27;20130;-71
2022/12/02 06:22:37;;;;;;;41.22;17.45;;;;;;;;;;5165208;27;20616;-73
2022/12/02 06:25:22;;;;;;;43.40;17.70;;;;;;;;;;5162699;27;20127;-71
2022/12/02 06:27:48;;;;;;;38.25;16.95;;;;;;;;;;5164610;27;20516;-73
2022/12/02 06:30:14;;;;;;;41.08;16.63;;;;;;;;;;5165020;27;20452;-71
2022/12/02 06:32:42;;;;;;;37.05;16.77;;;;;;;;;;5165348;27;20057;-71
2022/12/02 06:35:20;;;;;;;39.58;16.88;;;;;;;;;;5164280;27;20562;-72
2022/12/02 06:37:47;;;;;;;38.30;17.02;;;;;;;;;;5163770;27;20596;-72
2022/12/02 06:40:19;;;;;;;40.55;15.52;;;;;;;;;;5160348;27;20104;-73
2022/12/02 06:42:55;;;;;;;35.35;16.63;;;;;;;;;;5154452;27;20051;-73
2022/12/02 06:45:23;;;;;;;35.72;16.10;;;;;;;;;;5158281;27;20065;-74
2022/12/02 06:48:04;;;;;;;37.22;15.75;;;;;;;;;;5156883;27;20047;-73
2022/12/02 06:50:32;;;;;;;34.17;15.27;;;;;;;;;;5157840;27;20487;-71
2022/12/02 06:53:26;;;;;;;34.13;15.95;;;;;;;;;;5147948;27;20190;-72
2022/12/02 06:56:00;;;;;;;40.80;15.83;;;;;;;;;;5151470;27;20590;-72
2022/12/02 06:58:26;;;;;;;41.22;16.08;;;;;;;;;;5161940;27;20788;-72
2022/12/02 07:00:52;;;;;;;32.75;14.25;;;;;;;;;;5165176;27;20135;-72
2022/12/02 07:03:29;;;;;;;32.05;15.77;;;;;;;;;;5167817;27;20070;-72
2022/12/02 07:06:00;;;;;;;30.88;14.50;;;;;;;;;;5149984;27;20046;-71
2022/12/02 07:08:26;;;;;;;34.97;16.17;;;;;;;;;;5149861;27;20065;-71
2022/12/02 07:10:53;;;;;;;31.30;15.23;;;;;;;;;;5167856;27;20142;-72
2022/12/02 07:13:19;;;;;;;28.63;14.63;;;;;;;;;;5165402;27;20527;-73
2022/12/02 07:15:45;;;;;;;29.13;13.75;;;;;;;;;;5165755;27;20050;-70
2022/12/02 07:18:15;;;;;;;29.00;15.07;;;;;;;;;;5165248;27;20047;-72
2022/12/02 07:20:43;;;;;;;27.80;14.73;;;;;;;;;;5166047;27;20039;-70
2022/12/02 07:23:13;;;;;;;31.13;15.23;;;;;;;;;;5167367;27;20543;-72
2022/12/02 07:25:41;;;;;;;33.28;14.93;;;;;;;;;;5167734;27;20051;-71
2022/12/02 07:28:16;;;;;;;32.40;14.63;;;;;;;;;;5159868;27;20179;-73
2022/12/02 07:30:42;;;;;;;34.95;15.48;;;;;;;;;;5166293;27;20053;-71
2022/12/02 07:33:08;;;;;;;33.03;14.98;;;;;;;;;;5153294;27;20568;-72
2022/12/02 07:35:35;;;;;;;31.77;15.00;;;;;;;;;;5166501;27;20055;-72
2022/12/02 07:38:01;;;;;;;32.38;15.18;;;;;;;;;;5153213;27;20074;-71
2022/12/02 07:40:27;;;;;;;30.67;13.52;;;;;;;;;;5146155;27;20047;-72
2022/12/02 07:42:54;;;;;;;33.38;15.20;;;;;;;;;;5154491;27;20583;-71
2022/12/02 07:45:20;;;;;;;26.45;14.32;;;;;;;;;;5159632;27;20054;-70
2022/12/02 07:47:46;;;;;;;33.78;14.60;;;;;;;;;;5148016;27;20062;-71
2022/12/02 07:50:14;;;;;;;31.95;14.07;;;;;;;;;;5147197;27;20501;-71
2022/12/02 07:52:40;;;;;;;33.10;13.93;;;;;;;;;;5161775;27;20050;-71
2022/12/02 07:55:07;;;;;;;30.20;15.43;;;;;;;;;;5156035;27;20054;-71
2022/12/02 07:57:33;;;;;;;30.35;15.15;;;;;;;;;;5126990;27;20095;-71
2022/12/02 08:00:01;;;;;;;33.00;14.27;;;;;;;;;;5110488;27;20703;-72
2022/12/02 08:02:27;;;;;;;30.02;14.57;;;;;;;;;;5145831;27;20541;-72
2022/12/02 08:04:53;;;;;;;35.55;15.98;;;;;;;;;;5158585;27;20104;-71
2022/12/02 08:07:20;;;;;;;32.97;15.00;;;;;;;;;;5155262;27;20134;-72
2022/12/02 08:09:47;;;;;;;29.95;13.98;;;;;;;;;;5167454;27;20314;-72
2022/12/02 08:12:13;;;;;;;32.15;15.63;;;;;;;;;;5166850;27;20057;-71
2022/12/02 08:14:39;;;;;;;34.50;15.75;;;;;;;;;;5165572;27;20478;-72
2022/12/02 08:17:06;;;;;;;31.38;14.93;;;;;;;;;;5166288;27;20620;-72
2022/12/02 08:19:32;;;;;;;35.15;16.52;;;;;;;;;;5164926;27;20594;-72
2022/12/02 08:21:59;;;;;;;30.90;15.18;;;;;;;;;;5134343;27;20051;-71
2022/12/02 08:24:25;;;;;;;34.65;16.83;;;;;;;;;;5137244;27;20524;-72
2022/12/02 08:26:51;;;;;;;38.63;18.63;;;;;;;;;;5163917;27;20047;-71
2022/12/02 08:29:18;;;;;;;31.60;15.35;;;;;;;;;;5155336;27;20056;-72
2022/12/02 08:31:44;;;;;;;29.63;15.23;;;;;;;;;;5147607;27;20509;-73
2022/12/02 08:34:11;;;;;;;35.38;15.88;;;;;;;;;;5166401;27;20047;-71
2022/12/02 08:36:37;;;;;;;34.75;16.65;;;;;;;;;;5166990;27;20061;-72
2022/12/02 08:39:04;;;;;;;31.92;15.82;;;;;;;;;;5165859;27;20089;-72
2022/12/02 08:41:32;;;;;;;26.08;14.45;;;;;;;;;;5165765;27;20043;-72
2022/12/02 08:43:58;;;;;;;32.97;16.23;;;;;;;;;;5159823;27;20617;-72
2022/12/02 08:46:26;;;;;;;31.92;15.45;;;;;;;;;;5151259;27;20053;-72
2022/12/02 08:48:53;;;;;;;32.97;14.90;;;;;;;;;;5145433;27;20046;-72
2022/12/02 08:51:20;;;;;;;27.40;13.95;;;;;;;;;;5161645;27;20420;-72
2022/12/02 08:53:46;;;;;;;34.25;14.95;;;;;;;;;;5161594;27;20512;-72
2022/12/02 08:56:12;;;;;;;29.05;13.18;;;;;;;;;;5165274;27;20359;-73
2022/12/02 08:58:39;;;;;;;33.22;16.25;;;;;;;;;;5160649;27;20055;-72
2022/12/02 09:01:05;;;;;;;31.13;15.50;;;;;;;;;;5162780;27;20058;-70
2022/12/02 09:03:32;;;;;;;29.10;15.32;;;;;;;;;;5164982;27;20066;-71
2022/12/02 09:05:58;;;;;;;32.83;14.93;;;;;;;;;;5163889;27;20402;-71
2022/12/02 09:08:24;;;;;;;30.00;14.30;;;;;;;;;;5161144;27;20051;-71
2022/12/02 09:10:51;;;;;;;31.30;15.02;;;;;;;;;;5146554;27;20544;-73
2022/12/02 09:13:17;;;;;;;35.80;15.15;;;;;;;;;;5151075;27;20069;-71
2022/12/02 09:15:43;;;;;;;33.05;14.98;;;;;;;;;;5163226;27;20095;-71
2022/12/02 09:18:10;;;;;;;35.92;15.63;;;;;;;;;;5165578;27;20394;-73
2022/12/02 09:20:39;;;;;;;34.28;14.50;;;;;;;;;;5154483;27;20111;-72
2022/12/02 09:23:06;;;;;;;39.50;15.48;;;;;;;;;;5125489;27;20066;-71
2022/12/02 09:25:32;;;;;;;29.20;13.93;;;;;;;;;;5158462;27;20051;-72
2022/12/02 09:27:58;;;;;;;29.35;14.60;;;;;;;;;;5148285;27;20058;-72
2022/12/02 09:30:25;;;;;;;32.20;14.82;;;;;;;;;;5156002;27;20649;-71
2022/12/02 09:32:52;;;;;;;33.33;13.77;;;;;;;;;;5153295;27;20055;-72
2022/12/02 09:35:18;;;;;;;33.08;15.30;;;;;;;;;;5161439;27;20058;-72
2022/12/02 09:37:44;;;;;;;35.03;15.48;;;;;;;;;;5156795;27;20051;-72
2022/12/02 09:40:13;;;;;;;30.20;14.20;;;;;;;;;;5145219;27;20047;-70
2022/12/02 09:42:39;;;;;;;29.45;14.75;;;;;;;;;;5166381;27;20127;-71
2022/12/02 09:45:06;;;;;;;32.47;15.25;;;;;;;;;;5146595;27;20058;-71
2022/12/02 09:47:33;;;;;;;34.85;15.55;;;;;;;;;;5163565;27;20532;-70
2022/12/02 09:49:59;;;;;;;31.10;15.45;;;;;;;;;;5164045;27;20557;-71
2022/12/02 09:52:26;;;;;;;35.15;15.93;;;;;;;;;;5160491;27;20557;-71
2022/12/02 09:54:54;;;;;;;32.90;13.82;;;;;;;;;;5162829;27;20134;-72
2022/12/02 09:57:21;;;;;;;34.60;14.73;;;;;;;;;;5164891;27;20551;-71
2022/12/02 09:59:48;;;;;;;34.25;16.10;;;;;;;;;;5161520;27;20064;-70
2022/12/02 10:02:34;;;;;;;35.17;15.52;;;;;;;;;;5162284;27;20050;-72
2022/12/02 10:05:11;;;;;;;37.67;16.42;;;;;;;;;;5156321;27;20050;-71
2022/12/02 10:07:37;;;;;;;31.27;15.68;;;;;;;;;;5152277;27;20081;-71
2022/12/02 10:10:04;;;;;;;34.65;14.75;;;;;;;;;;5157093;27;20120;-71
2022/12/02 10:12:30;;;;;;;33.85;15.80;;;;;;;;;;5163883;27;20317;-71
2022/12/02 10:14:57;;;;;;;39.17;17.80;;;;;;;;;;5163351;27;20050;-71
2022/12/02 10:17:24;;;;;;;39.30;16.15;;;;;;;;;;5164762;27;20127;-71
2022/12/02 10:19:51;;;;;;;35.88;16.70;;;;;;;;;;5156094;27;20099;-72
2022/12/02 10:22:18;;;;;;;38.33;15.98;;;;;;;;;;5160536;27;20077;-72
2022/12/02 10:24:45;;;;;;;40.72;16.50;;;;;;;;;;5156457;27;20055;-71
2022/12/02 10:27:28;;;;;;;40.97;17.60;;;;;;;;;;5155365;27;20054;-71
2022/12/02 10:30:12;;;;;;;36.33;17.00;;;;;;;;;;5162756;27;20053;-72
2022/12/02 10:32:39;;;;;;;35.55;16.25;;;;;;;;;;5163052;27;20050;-72
2022/12/02 10:35:08;;;;;;;35.47;15.50;;;;;;;;;;5130579;27;20403;-71
2022/12/02 10:37:35;;;;;;;33.92;16.80;;;;;;;;;;5143503;27;20054;-72
2022/12/02 10:40:07;;;;;;;37.70;17.10;;;;;;;;;;5146301;27;20647;-72
2022/12/02 10:42:34;;;;;;;31.77;14.45;;;;;;;;;;5133096;27;20054;-55
2022/12/02 10:45:09;;;;;;;36.53;16.33;;;;;;;;;;5151925;27;20650;-70
2022/12/02 10:47:36;;;;;;;38.58;16.30;;;;;;;;;;5157062;27;20107;-69
2022/12/02 10:50:04;;;;;;;34.40;15.80;;;;;;;;;;5151988;27;20058;-70
2022/12/02 10:52:31;;;;;;;35.03;15.15;;;;;;;;;;5147461;27;20436;-70
2022/12/02 10:54:57;;;;;;;35.08;15.55;;;;;;;;;;5145812;27;20050;-70
2022/12/02 10:57:25;;;;;;;34.25;15.45;;;;;;;;;;5160903;27;20047;-69
2022/12/02 10:59:54;;;;;;;37.10;16.67;;;;;;;;;;5149075;27;20130;-69
2022/12/02 11:02:42;;;;;;;33.17;14.45;;;;;;;;;;5163971;27;20179;-69
2022/12/02 11:05:16;;;;;;;39.00;15.88;;;;;;;;;;5147618;27;20047;-68
2022/12/02 11:08:08;;;;;;;35.67;16.13;;;;;;;;;;5132611;27;20043;-70
2022/12/02 11:10:43;;;;;;;38.85;16.08;;;;;;;;;;5159059;27;20503;-69
2022/12/02 11:13:09;;;;;;;37.70;16.55;;;;;;;;;;5164806;27;20547;-70
2022/12/02 11:15:39;;;;;;;39.00;16.90;;;;;;;;;;5149434;27;20051;-69
2022/12/02 11:18:06;;;;;;;43.03;17.63;;;;;;;;;;5150567;27;20564;-70
2022/12/02 11:20:56;;;;;;;40.22;16.60;;;;;;;;;;5158623;27;20050;-71
2022/12/02 11:23:22;;;;;;;39.95;16.38;;;;;;;;;;5051851;28;20078;-66
2022/12/02 11:25:49;;;;;;;42.85;17.55;;;;;;;;;;5047955;28;20217;-68
2022/12/02 11:28:18;;;;;;;37.72;17.65;;;;;;;;;;5056625;28;20207;-71
2022/12/02 11:30:45;;;;;;;42.10;16.48;;;;;;;;;;5057948;28;20133;-73
2022/12/02 11:33:13;;;;;;;43.60;17.33;;;;;;;;;;5051998;28;20153;-71
2022/12/02 11:35:58;;;;;;;44.85;18.15;;;;;;;;;;5057155;28;20049;-72
2022/12/02 11:38:24;;;;;;;45.05;17.63;;;;;;;;;;5058650;28;20547;-72
2022/12/02 11:40:51;;;;;;;47.20;18.63;;;;;;;;;;5061370;28;20629;-72
2022/12/02 11:43:35;;;;;;;47.85;16.52;;;;;;;;;;5058742;28;20053;-73
2022/12/02 11:46:03;;;;;;;44.00;17.77;;;;;;;;;;5058048;28;20107;-72
2022/12/02 11:48:30;;;;;;;37.33;14.90;;;;;;;;;;5061260;28;20601;-73
2022/12/02 11:50:56;;;;;;;43.50;18.00;;;;;;;;;;5060983;28;20053;-72
2022/12/02 11:53:23;;;;;;;45.53;18.38;;;;;;;;;;5049938;28;20487;-73
2022/12/02 11:55:50;;;;;;;44.90;18.58;;;;;;;;;;5054245;28;20629;-73
2022/12/02 11:58:27;;;;;;;43.17;17.40;;;;;;;;;;5057769;28;20056;-73
2022/12/02 12:01:12;;;;;;;40.00;18.25;;;;;;;;;;5128640;27;20055;-73
2022/12/02 12:03:42;;;;;;;38.38;16.30;;;;;;;;;;5155604;27;20047;-72
2022/12/02 12:06:19;;;;;;;40.55;16.85;;;;;;;;;;5146318;27;20044;-73
2022/12/02 12:08:49;;;;;;;44.13;18.05;;;;;;;;;;5157819;27;20130;-72
2022/12/02 12:11:15;;;;;;;37.22;17.63;;;;;;;;;;5158467;27;20047;-72
2022/12/02 12:14:01;;;;;;;41.13;18.48;;;;;;;;;;5161562;27;20804;-70
2022/12/02 12:16:31;;;;;;;44.58;19.00;;;;;;;;;;5158142;27;20493;-72
2022/12/02 12:19:02;;;;;;;48.92;20.45;;;;;;;;;;5155501;27;20051;-72
2022/12/02 12:21:30;;;;;;;45.35;17.95;;;;;;;;;;5158594;27;20490;-72
2022/12/02 12:24:25;;;;;;;48.25;18.90;;;;;;;;;;5163986;27;20057;-72
2022/12/02 12:26:53;;;;;;;44.13;19.83;;;;;;;;;;5165985;27;20051;-71
2022/12/02 12:29:20;;;;;;;48.58;18.67;;;;;;;;;;5165834;27;20054;-72
2022/12/02 12:31:47;;;;;;;40.92;18.60;;;;;;;;;;5159771;27;20069;-72
2022/12/02 12:34:15;;;;;;;46.45;18.30;;;;;;;;;;5165955;27;20903;-72
2022/12/02 12:36:42;;;;;;;41.58;16.70;;;;;;;;;;5157910;27;20143;-71
2022/12/02 12:39:09;;;;;;;45.50;18.10;;;;;;;;;;5156053;27;20054;-71
2022/12/02 12:41:35;;;;;;;43.53;17.05;;;;;;;;;;5148500;27;20118;-71
2022/12/02 12:44:21;;;;;;;43.67;16.90;;;;;;;;;;5134094;27;20051;-72
2022/12/02 12:46:55;;;;;;;37.50;15.40;;;;;;;;;;5146108;27;20074;-71
2022/12/02 12:49:21;;;;;;;45.92;16.83;;;;;;;;;;5150542;27;20546;-72
2022/12/02 12:51:48;;;;;;;36.75;16.42;;;;;;;;;;5144501;27;20582;-70
2022/12/02 12:54:14;;;;;;;46.10;17.35;;;;;;;;;;5148749;27;20093;-71
2022/12/02 12:56:41;;;;;;;35.63;17.50;;;;;;;;;;5160106;27;20087;-70
2022/12/02 12:59:07;;;;;;;43.20;16.92;;;;;;;;;;5166589;27;20042;-71
2022/12/02 13:01:33;;;;;;;40.70;16.27;;;;;;;;;;5161908;27;20047;-70
2022/12/02 13:04:00;;;;;;;31.50;13.27;;;;;;;;;;5165761;27;20528;-70
2022/12/02 13:06:26;;;;;;;38.03;14.95;;;;;;;;;;5157778;27;20428;-71
2022/12/02 13:08:52;;;;;;;38.65;15.90;;;;;;;;;;5160528;27;20062;-70
2022/12/02 13:11:19;;;;;;;38.65;15.35;;;;;;;;;;5165802;27;20563;-70
2022/12/02 13:13:45;;;;;;;38.60;14.88;;;;;;;;;;5146627;27;20055;-71
2022/12/02 13:16:12;;;;;;;35.33;14.02;;;;;;;;;;5150363;27;20059;-70
2022/12/02 13:18:38;;;;;;;34.67;15.07;;;;;;;;;;5144841;27;20051;-70
2022/12/02 13:21:04;;;;;;;29.30;11.98;;;;;;;;;;5158717;27;20505;-71
2022/12/02 13:23:31;;;;;;;32.75;13.30;;;;;;;;;;5162555;27;20541;-70
2022/12/02 13:25:57;;;;;;;28.50;12.93;;;;;;;;;;5154561;27;20439;-70
2022/12/02 13:28:23;;;;;;;26.02;10.00;;;;;;;;;;5149519;27;20058;-72
2022/12/02 13:30:50;;;;;;;25.50;10.70;;;;;;;;;;5152957;27;20062;-72
2022/12/02 13:33:17;;;;;;;23.40;10.82;;;;;;;;;;5159922;27;20051;-71
2022/12/02 13:35:44;;;;;;;26.58;11.48;;;;;;;;;;5164036;27;20138;-71
2022/12/02 13:38:11;;;;;;;25.75;11.25;;;;;;;;;;5160605;27;20508;-70
2022/12/02 13:40:37;;;;;;;28.73;10.40;;;;;;;;;;5151515;27;20424;-70
2022/12/02 13:43:04;;;;;;;21.35;9.95;;;;;;;;;;5163742;27;20547;-70
2022/12/02 13:45:30;;;;;;;22.90;9.13;;;;;;;;;;5157941;27;20054;-70
2022/12/02 13:47:58;;;;;;;22.40;9.45;;;;;;;;;;5139023;27;20128;-70
2022/12/02 13:50:24;;;;;;;21.05;9.20;;;;;;;;;;5159781;27;20054;-70
2022/12/02 13:52:50;;;;;;;22.75;7.53;;;;;;;;;;5161430;27;20061;-70
2022/12/02 13:55:17;;;;;;;21.92;9.52;;;;;;;;;;5149092;27;20165;-71
2022/12/02 13:57:43;;;;;;;24.35;9.10;;;;;;;;;;5148766;27;20051;-72
2022/12/02 14:00:11;;;;;;;19.92;8.77;;;;;;;;;;5151342;27;20055;-72
2022/12/02 14:02:37;;;;;;;16.52;7.85;;;;;;;;;;5159839;27;20928;-72
2022/12/02 14:05:03;;;;;;;14.98;6.45;;;;;;;;;;5155834;27;20061;-70
2022/12/02 14:07:33;;;;;;;20.45;9.52;;;;;;;;;;5151683;27;20035;-70
2022/12/02 14:10:00;;;;;;;19.45;8.98;;;;;;;;;;5152365;27;20042;-72
2022/12/02 14:12:26;;;;;;;17.33;7.68;;;;;;;;;;5159095;27;20417;-72
2022/12/02 14:14:55;;;;;;;19.67;8.68;;;;;;;;;;5155317;27;20580;-71
2022/12/02 14:17:22;;;;;;;17.83;8.73;;;;;;;;;;5155075;27;20180;-70
2022/12/02 14:19:48;;;;;;;24.30;9.45;;;;;;;;;;5149976;27;20057;-71
2022/12/02 14:22:17;;;;;;;17.75;7.47;;;;;;;;;;5142530;27;20051;-71
2022/12/02 14:24:43;;;;;;;23.67;9.15;;;;;;;;;;5158459;27;20574;-71
2022/12/02 14:27:14;;;;;;;18.20;9.20;;;;;;;;;;5152387;27;20050;-71